Terminal Aerodrome Forecast
Issued by NWS

Home | Current Version | Previous Version | Text Only | Print | Product List | Glossary On
Versions: 1 2 3 4 5 6 7 8 9 10 11 12 13 14 15 16 17
170
FTUS44 KLZK 272341
TAFHOT
TAF
KHOT 272341Z 2800/2824 15004KT P6SM OVC250
     FM280600 17003KT P6SM OVC025
      TEMPO 2809/2813 5SM BR BKN009
     FM281500 20006KT P6SM SCT025 BKN040
     FM282000 21009KT P6SM VCSH BKN050=

USA.gov is the U.S. government's official web portal to all federal, state and local government web resources and services.